Tiempo atmosférico en la estación meteorológica de Villablino, León (958 m.)



Fecha
DESCASC
Temp. máxima en grados centígrados (hora)
DESCASC
Temp. mínima en grados centígrados (hora)
DESCASC
Temp. media en grados centígrados
DESCASC
Racha de viento máxima en m/sg (hora)
DESCASC
Velocidad máxima media en intervalos de 10 minutos(hora)
DESCASC
Precipitaciones diarias en mm
DESCASC
Precipitaciones de 00:00 a 06:00 en mm
DESCASC
Precipitaciones de 06:00 a 12:00 en mm
DESCASC
Precipitaciones de 12:00 a 18:00 en mm
DESCASC
Precipitaciones de 18:00 a 24:00 en mm
DESCASC
13-10-2019 16.8 (00:00) 9.9 (04:40) 13.3 15.56 (00:20) 6.39 (00:50) 4.9 0 2.8 2.1 0
12-10-2019 24.5 (16:50) 6.1 (08:40) 15.3 18.33 (18:40) 8.33 (17:40) 0.2 0 0 0 0.2
11-10-2019 25.8 (17:30) 1.7 (08:10) 13.7 15.83 (15:50) 7.78 (15:30) 0 0 0 0 0
10-10-2019 24.4 (16:20) 0.4 (00:00) 12.4 6.11 (16:40) 4.17 (17:00) 0 0 0 0 0
09-10-2019 17.2 (16:10) 4.2 (00:00) 10.7 8.61 (16:30) 4.44 (16:00) 0 0 0 0 0
08-10-2019 24.8 (15:20) 4.9 (00:00) 14.8 11.11 (18:40) 6.67 (18:30) 0 0 0 0 0
07-10-2019 28.3 (15:50) 2.8 (00:00) 15.5 7.78 (16:40) 4.17 (16:40) 0 0 0 0 0
06-10-2019 22 (14:00) 6.6 (00:00) 14.3 8.06 (18:00) 4.72 (18:00) 0 0 0 0 0
05-10-2019 25.3 (17:00) 5.6 (00:00) 15.4 8.61 (18:00) 6.11 (16:00) 0 0 0 0 0
04-10-2019 24.7 (15:40) 8.7 (00:00) 16.7 9.17 (16:50) 5.56 (17:50) 0.2 0.2 0 0 0
03-10-2019 25.2 (16:30) 2.7 (00:00) 14 6.94 (18:40) 4.17 (18:50) 0 0 0 0 0
02-10-2019 19.8 (16:10) 6.9 (00:00) 13.3 7.5 (12:10) 3.89 (12:40) 0 0 0 0 0
01-10-2019 22.2 (15:30) 7.5 (00:00) 14.9 9.17 (16:30) 5 (16:10) 0 0 0 0 0
30-09-2019 25.5 (17:00) 7.8 (00:00) 16.7 11.94 (16:00) 5.83 (15:20) 0 0 0 0 0
29-09-2019 21.4 (15:10) 2.6 (00:00) 12 13.06 (16:10) 7.78 (15:30) 0 0 0 0 0
28-09-2019 25.1 (16:50) 4.3 (00:00) 14.7 9.44 (16:30) 5.28 (15:30) 0 0 0 0 0
27-09-2019 20 (17:30) 4.3 (00:00) 12.2 12.5 (17:00) 7.5 (17:00) 0 0 0 0 0
26-09-2019 24.4 (17:20) 7.3 (00:00) 15.8 7.5 (14:20) 4.72 (16:00) 0 0 0 0 0
25-09-2019 18.8 (17:00) 8.8 (00:00) 13.8 9.44 (18:30) 5.56 (15:20) 1.8 0 1.8 0 0
24-09-2019 19.2 (15:20) 11.5 (00:00) 15.4 20 (15:30) 10.83 (15:30) 3.2 1.8 1.2 0.2 0
23-09-2019 16.3 (14:00) 6.4 (00:00) 11.3 9.17 (13:40) 5.56 (13:40) 0.4 0 0 0 0.4
22-09-2019 17.9 (16:10) 7.4 (00:00) 12.6 14.17 (00:20) 7.5 (00:30) 0 0 0 0 0
21-09-2019 19 (12:30) 10.3 (00:00) 14.7 18.61 (22:20) 10.28 (22:30) 12 0 0.8 0.6 10.6
20-09-2019 26.9 (14:50) 7.3 (00:00) 17.1 9.72 (18:50) 4.72 (16:50) 0.2 0 0 0 0.2
19-09-2019 25.4 (14:00) 8.2 (00:00) 16.8 7.78 (16:20) 3.61 (16:20) 0 0 0 0 0
18-09-2019 26.3 (17:40) 10.3 (00:00) 18.3 4.72 (02:50) 2.5 (01:40) 1 1 0 0 0
17-09-2019 24.3 (14:30) 11.3 (00:00) 17.8 8.61 (16:10) 4.44 (16:20) 6.8 0 0 3.4 3.4

Gráficas

Temp. máximas Temp. mínimas Temp. medias Precipitaciones Rachas de viento máximas Velocidades máximas media en intervalos de 10 minutos

Datos horarios

Fecha y hora oficial Temperatura (ºC) Velocidad del viento (km/h) Dirección del viento Racha (km/h) Dirección de racha Precipitación (mm) Presión (hPa) Tendencia (hPa) Humedad (%)
2019-10-16 23:00:00 11.2 19 Sur 40 Sur 1.6 -- -- 92
2019-10-16 22:00:00 11.2 22 Sur 40 Sur 2 -- -- 92
2019-10-16 21:00:00 11.3 12 Sudoeste 45 Sur 0.2 -- -- 91
2019-10-16 20:00:00 11 22 Sudoeste 45 Sur 2.2 -- -- 92
2019-10-16 19:00:00 11.1 13 Sudoeste 32 Sur 0.8 -- -- 93
2019-10-16 18:00:00 11.1 14 Sudoeste 29 Sudoeste 1.2 -- -- 92
2019-10-16 17:00:00 11.7 7 Sudoeste 21 Sudoeste 0.4 -- -- 90
2019-10-16 16:00:00 11.5 13 Sudoeste 25 Sur 0 -- -- 88
2019-10-16 15:00:00 11.7 12 Sudoeste 30 Sur 0 -- -- 88
2019-10-16 14:00:00 11.1 13 Sudoeste 35 Sur 0 -- -- 90
2019-10-16 13:00:00 10.7 18 Sudoeste 36 Sur 0.6 -- -- 90
2019-10-16 12:00:00 11.2 21 Sudoeste 42 Sudoeste -- -- -- 82
2019-10-16 11:00:00 11 16 Sur 36 Sur 0 -- -- 82
2019-10-16 10:00:00 10.5 17 Sudoeste 39 Sur 0.2 -- -- 83
2019-10-16 09:00:00 10.1 16 Sur 43 Sudoeste 0 -- -- 86
2019-10-16 08:00:00 9.8 20 Sudoeste 49 Sudoeste 1 -- -- 87
2019-10-16 07:00:00 9.4 31 Sudoeste 47 Sudoeste 0.2 -- -- 91
2019-10-16 06:00:00 9.5 25 Sudoeste 41 Sudoeste 0.2 -- -- 88
2019-10-16 05:00:00 9.6 16 Sudoeste 37 Sur 0 -- -- 87
2019-10-16 04:00:00 9.4 9 Oeste 22 Sudoeste 0 -- -- 89
2019-10-16 03:00:00 9.3 12 Oeste 28 Oeste 0 -- -- 89
2019-10-16 02:00:00 9.3 10 Sudoeste 25 Sudoeste 0 -- -- 89
2019-10-16 01:00:00 9 12 Sudoeste 29 Sudoeste 0 -- -- 91
2019-10-16 00:00:00 9.3 8 Sudoeste 32 Sudoeste 0 -- -- 88
2019-10-15 23:00:00 9.7 18 Sudoeste 40 Sudoeste 0 -- -- 82
2019-10-15 22:00:00 9.3 16 Sudoeste 40 Sur 0 -- -- 83
2019-10-15 21:00:00 8.8 15 Sur 39 Sur 0.2 -- -- 83
2019-10-15 20:00:00 8.4 20 Sudoeste 49 Sur 0.4 -- -- 83
2019-10-15 19:00:00 8.8 17 Sur 47 Sur 0.4 -- -- 86
2019-10-15 18:00:00 9.2 23 Sur 40 Sur 0.2 -- -- 85
2019-10-15 17:00:00 9.1 12 Sur 22 Sudoeste 0 -- -- 87
2019-10-15 16:00:00 9.4 8 Sudoeste 37 Sur 0 -- -- 80
2019-10-15 15:00:00 9.5 16 Sudoeste 41 Sudoeste 0 -- -- 77
2019-10-15 14:00:00 9.5 4 Nordeste 36 Sudoeste 0 -- -- 77
2019-10-15 13:00:00 9.2 16 Sur 36 Sur 0 -- -- 78
2019-10-15 12:00:00 8.7 13 Sur 39 Sur 0 -- -- 75
2019-10-15 11:00:00 8 13 Sur 28 Sudoeste 0 -- -- 78
2019-10-15 10:00:00 6.8 13 Sur 26 Sudoeste 0 -- -- 85
2019-10-15 09:00:00 6.3 13 Sudoeste 20 Sudoeste 0 -- -- 82
2019-10-15 08:00:00 6.1 10 Sudoeste 18 Sudoeste 0 -- -- 84
2019-10-15 07:00:00 5.8 8 Oeste 17 Oeste 0 -- -- 88
2019-10-15 06:00:00 5.9 11 Sudoeste 18 Sudoeste 0 -- -- 84
2019-10-15 05:00:00 5.6 12 Sudoeste 23 Sudoeste 0 -- -- 87
2019-10-15 04:00:00 5.2 14 Sudoeste 24 Sudoeste 0.4 -- -- 90
2019-10-15 03:00:00 4.7 15 Sudoeste 30 Sur 0.8 -- -- 91
2019-10-15 02:00:00 5.2 15 Oeste 31 Oeste 0 -- -- 90
2019-10-15 01:00:00 5.5 9 Sudoeste 18 Sudoeste 0 -- -- 90
2019-10-15 00:00:00 5.4 10 Oeste 18 Oeste 0.2 -- -- 89
2019-10-14 23:00:00 5.1 2 Oeste 19 Oeste 0.4 -- -- 92
2019-10-14 22:00:00 5 4 Norte 23 Sur 1.6 -- -- 92
2019-10-14 21:00:00 5.7 4 Oeste 10 Noroeste -- -- -- 85
2019-10-14 20:00:00 5.6 6 Noroeste 23 Noroeste 0 -- -- 86
2019-10-14 19:00:00 5.9 6 Norte 21 Sur 1 -- -- 85
2019-10-14 18:00:00 7.5 6 Este 18 Norte 1 -- -- 84
2019-10-14 17:00:00 8.2 4 Norte 24 Noroeste 0.4 -- -- 84
2019-10-14 16:00:00 6.1 17 Noroeste 40 Sur 2.2 -- -- 86
2019-10-14 15:00:00 9.3 16 Sur 45 Sur 0.2 -- -- 82
2019-10-14 14:00:00 8 14 Sudoeste 40 Sur 1.6 -- -- 88
2019-10-14 13:00:00 8.4 19 Sudoeste 50 Sur 1.6 -- -- 84
2019-10-14 12:00:00 8.2 15 Sudoeste 29 Sur 0.6 -- -- 86
2019-10-14 11:00:00 9.1 12 Sur 21 Sur 0 -- -- 82
2019-10-14 10:00:00 7.6 5 Sur 11 Este 0.2 -- -- 93
2019-10-14 09:00:00 7 5 Norte 37 Sur 1.4 -- -- 91
2019-10-14 08:00:00 7.8 15 Sudoeste 42 Sur 0.8 -- -- 87
2019-10-14 07:00:00 8.4 16 Sudoeste 36 Sur 2.8 -- -- 88
2019-10-14 06:00:00 11 25 Sur 73 Sur 0 -- -- 76
2019-10-14 05:00:00 11.2 9 Nordeste 44 Sur 0 -- -- 75
2019-10-14 04:00:00 16.1 25 Sur 66 Sudoeste 0 -- -- 59
2019-10-14 03:00:00 15 7 Sudeste 36 Sur 0.2 -- -- 64
2019-10-14 02:00:00 15 8 Sur 39 Sudoeste 0 -- -- 66
2019-10-14 01:00:00 15.7 14 Sur 35 Sur 0 -- -- 60
2019-10-14 00:00:00 15.6 10 Sur 36 Sur 0 -- -- 63
2019-10-13 23:00:00 15.4 15 Sudeste 30 Sur 0 -- -- 65
2019-10-13 22:00:00 15.6 16 Sur 29 Sur 0 -- -- 65
2019-10-13 21:00:00 14.6 9 Sur 21 Sur 0 -- -- 81
2019-10-13 20:00:00 13.8 3 Sur 12 Sudeste 0 -- -- 89
2019-10-13 19:00:00 14.3 5 Noroeste 16 Sudeste 0 -- -- 88
2019-10-13 18:00:00 14.9 2 Norte 10 Sur 0 -- -- 87
2019-10-13 17:00:00 14.3 4 Sudeste 19 Sur 0.2 -- -- 92
2019-10-13 16:00:00 13.9 13 Sur 20 Sudoeste 0 -- -- 91
2019-10-13 15:00:00 14.7 12 Sudoeste 21 Sur -- -- -- 89
2019-10-13 14:00:00 14.4 4 Este 8 Nordeste 0.2 -- -- 93
2019-10-13 13:00:00 13.2 4 Norte 8 Norte 1 -- -- 92
2019-10-13 12:00:00 12.2 5 Sur 8 Sur 0.4 -- -- 94
2019-10-13 11:00:00 11.7 2 Norte 6 Sudoeste 1.4 -- -- 93
2019-10-13 10:00:00 11 3 Sudoeste 9 Norte 1 -- -- 93
2019-10-13 09:00:00 11.7 5 Norte 32 Sudoeste 0 -- -- 79
2019-10-13 08:00:00 13.1 9 Sudoeste 26 Sudoeste 0 -- -- 71
2019-10-13 07:00:00 12.9 15 Sudoeste 30 Sur 0 -- -- 73
2019-10-13 06:00:00 11.7 8 Noroeste 28 Sur 0 -- -- 79
2019-10-13 05:00:00 10.6 6 Nordeste 12 Norte 0 -- -- 86
2019-10-13 04:00:00 10.5 5 Norte 10 Norte 0 -- -- 88
2019-10-13 03:00:00 12.3 5 Norte 21 Sur 0 -- -- 81
2019-10-13 02:00:00 14.5 9 Sur 37 Sur 0 -- -- 74
2019-10-13 01:00:00 15.7 21 Sur 56 Sudoeste 0 -- -- 72
2019-10-13 00:00:00 16.8 18 Sur 47 Sur 0 -- -- 70
2019-10-12 23:00:00 18.3 23 Sur 49 Sur 0 -- -- 63
2019-10-12 22:00:00 19.5 18 Sur 39 Sudoeste 0 -- -- 56
2019-10-12 21:00:00 19.4 13 Sur 37 Sudoeste 0.2 -- -- 54
2019-10-12 20:00:00 18.8 16 Sudeste 44 Sudeste 0 -- -- 63
2019-10-12 19:00:00 20.7 18 Sudeste 66 Sur 0 -- -- 52
2019-10-12 18:00:00 21.7 19 Sur 59 Sur 0 -- -- 47
2019-10-12 17:00:00 24.5 22 Sur 48 Sur 0 -- -- 37
2019-10-12 16:00:00 24.2 27 Sur 45 Sudoeste 0 -- -- 38
2019-10-12 15:00:00 23 22 Sur 63 Sur 0 -- -- 44
2019-10-12 14:00:00 22.4 20 Sur 45 Sur 0 -- -- 45
2019-10-12 13:00:00 21 21 Sudoeste 40 Sur 0 -- -- 48
2019-10-12 12:00:00 19.4 4 Sudeste 12 Sudoeste 0 -- -- 58
2019-10-12 11:00:00 13.3 2 Este 7 Oeste 0 -- -- 92
2019-10-12 10:00:00 7.5 2 Sur 8 Norte 0 -- -- 99
2019-10-12 09:00:00 6.5 0 Calma 6 Oeste 0 -- -- 99
2019-10-12 08:00:00 6.5 0 Calma 6 Nordeste 0 -- -- 100
2019-10-12 07:00:00 6.7 0 Calma 6 Norte 0 -- -- 98
2019-10-12 06:00:00 7.4 2 Nordeste 5 Norte 0 -- -- 98
2019-10-12 05:00:00 8 2 Sur 6 Noroeste 0 -- -- 98
2019-10-12 04:00:00 7.8 3 Norte 5 Noroeste 0 -- -- 97
2019-10-12 03:00:00 8.1 2 Nordeste 6 Nordeste 0 -- -- 96
2019-10-12 02:00:00 8.8 2 Norte 6 Nordeste 0 -- -- 96
2019-10-12 01:00:00 9.8 3 Norte 5 Norte 0 -- -- 94
2019-10-12 00:00:00 10.5 0 Calma 6 Norte 0 -- -- 91
2019-10-11 23:00:00 11 0 Calma 6 Norte 0 -- -- 89
2019-10-11 22:00:00 11.9 3 Nordeste 9 Norte 0 -- -- 86
2019-10-11 21:00:00 14 4 Nordeste 8 Norte 0 -- -- 77
2019-10-11 20:00:00 17 4 Norte 31 Sur 0 -- -- 62
2019-10-11 19:00:00 19.7 5 Oeste 21 Sur 0 -- -- 56
2019-10-11 18:00:00 22.9 9 Sudoeste 28 Sur 0 -- -- 46
2019-10-11 17:00:00 24.6 19 Sur 49 Sur 0 -- -- 40
2019-10-11 16:00:00 24.1 25 Sur 57 Sur 0 -- -- 40
2019-10-11 15:00:00 23.4 26 Sur 53 Sur 0 -- -- 41
2019-10-11 14:00:00 22.5 27 Sur 48 Sur 0 -- -- 42
2019-10-11 13:00:00 18.1 4 Este 9 Este 0 -- -- 56
2019-10-11 12:00:00 13.4 3 Sudeste 6 Sur 0 -- -- 66
2019-10-11 11:00:00 9.5 3 Sudeste 6 Nordeste 0 -- -- 80
2019-10-11 10:00:00 3.3 0 Calma 5 Norte 0 -- -- 99
2019-10-11 09:00:00 2.1 3 Norte 5 Noroeste 0 -- -- 99
2019-10-11 08:00:00 2 3 Norte 6 Norte 0 -- -- 98
2019-10-11 07:00:00 2.3 4 Norte 6 Nordeste 0 -- -- 99
2019-10-11 06:00:00 2.6 4 Norte 7 Nordeste 0 -- -- 98
2019-10-11 05:00:00 2.9 3 Norte 6 Norte 0 -- -- 98
2019-10-11 04:00:00 3.5 2 Norte 6 Norte 0 -- -- 97
2019-10-11 03:00:00 4.3 2 Nordeste 6 Nordeste 0 -- -- 96
2019-10-11 02:00:00 4.8 3 Norte 5 Nordeste 0 -- -- 96
2019-10-11 01:00:00 5.5 3 Norte 5 Norte 0 -- -- 93
2019-10-11 00:00:00 6.8 2 Nordeste 7 Norte 0 -- -- 94
2019-10-10 23:00:00 7.6 2 Norte 5 Norte 0 -- -- 92
2019-10-10 22:00:00 8.7 2 Norte 4 Nordeste 0 -- -- 88
2019-10-10 21:00:00 10.6 0 Calma 5 Norte 0 -- -- 83
2019-10-10 20:00:00 13.3 0 Calma 8 Norte 0 -- -- 71
2019-10-10 19:00:00 16.4 4 Norte 14 Sudoeste 0 -- -- 59
2019-10-10 18:00:00 21.8 5 Sudoeste 20 Sudoeste 0 -- -- 44
2019-10-10 17:00:00 23.8 15 Sudoeste 22 Sudoeste 0 -- -- 41
2019-10-10 16:00:00 24 11 Sudoeste 19 Sudoeste 0 -- -- 39
2019-10-10 15:00:00 22.9 7 Sudoeste 17 Sudoeste 0 -- -- 36
2019-10-10 14:00:00 19.7 5 Norte 10 Noroeste 0 -- -- 38
2019-10-10 13:00:00 14.7 6 Sur 9 Sur 0 -- -- 51
2019-10-10 12:00:00 11.2 3 Sudeste 9 Sur 0 -- -- 61
2019-10-10 11:00:00 7.9 4 Sudeste 5 Sudeste 0 -- -- 73
2019-10-10 10:00:00 1.4 0 Calma 7 Norte 0 -- -- 98
2019-10-10 09:00:00 0.6 0 Calma 6 Norte 0 -- -- 98
2019-10-10 08:00:00 0.7 4 Norte 8 Norte 0 -- -- 98
2019-10-10 07:00:00 0.9 3 Norte 8 Nordeste 0 -- -- 97
2019-10-10 06:00:00 1.2 4 Norte 7 Nordeste 0 -- -- 98
2019-10-10 05:00:00 1.9 4 Norte 8 Norte 0 -- -- 98
2019-10-10 04:00:00 2.5 4 Nordeste 8 Norte 0 -- -- 98
2019-10-10 03:00:00 3 3 Norte 8 Norte 0 -- -- 97
2019-10-10 02:00:00 3.4 2 Norte 6 Norte 0 -- -- 94
2019-10-10 01:00:00 4 4 Norte 10 Norte 0 -- -- 93
2019-10-10 00:00:00 5.3 3 Nordeste 9 Norte 0 -- -- 91
2019-10-09 23:00:00 6.2 6 Norte 9 Norte 0 -- -- 88
2019-10-09 22:00:00 7.5 3 Norte 10 Norte 0 -- -- 83
2019-10-09 21:00:00 9.7 6 Norte 23 Noroeste 0 -- -- 75
2019-10-09 20:00:00 12.4 9 Noroeste 24 Noroeste 0 -- -- 62
2019-10-09 19:00:00 13.6 15 Noroeste 23 Noroeste 0 -- -- 57
2019-10-09 18:00:00 15.1 8 Noroeste 22 Norte 0 -- -- 52
2019-10-09 17:00:00 16.7 14 Noroeste 31 Noroeste 0 -- -- 47
2019-10-09 16:00:00 16.9 16 Noroeste 30 Oeste 0 -- -- 47
2019-10-09 15:00:00 16.4 14 Noroeste 26 Noroeste 0 -- -- 50
2019-10-09 14:00:00 15.8 12 Norte 25 Norte 0 -- -- 49
2019-10-09 13:00:00 15 4 Sur 19 Noroeste 0 -- -- 51
2019-10-09 12:00:00 11.9 9 Norte 21 Norte 0 -- -- 60
2019-10-09 11:00:00 11.5 5 Sudeste 11 Este 0 -- -- 72
2019-10-09 10:00:00 6.3 0 Calma 7 Nordeste 0 -- -- 89
2019-10-09 09:00:00 4.2 6 Norte 9 Norte 0 -- -- 93
2019-10-09 08:00:00 4.7 0 Calma 8 Norte 0 -- -- 93
2019-10-09 07:00:00 5.5 3 Norte 9 Nordeste 0 -- -- 93
2019-10-09 06:00:00 7.7 8 Norte 15 Norte 0 -- -- 87
2019-10-09 05:00:00 8.8 9 Norte 14 Norte 0 -- -- 89
2019-10-09 04:00:00 9 3 Sudoeste 8 Noroeste 0 -- -- 94
2019-10-09 03:00:00 9.5 5 Norte 12 Norte 0 -- -- 93
2019-10-09 02:00:00 9.7 2 Oeste 13 Noroeste 0 -- -- 94
2019-10-09 01:00:00 10.4 4 Norte 18 Norte 0 -- -- 90
2019-10-09 00:00:00 11.8 8 Norte 28 Norte 0 -- -- 84
2019-10-08 23:00:00 13.3 15 Noroeste 26 Norte 0 -- -- 82
2019-10-08 22:00:00 14.2 8 Norte 28 Norte 0 -- -- 83
2019-10-08 21:00:00 14.9 7 Norte 12 Norte 0 -- -- 85
2019-10-08 20:00:00 16.1 8 Norte 30 Noroeste 0 -- -- 83
2019-10-08 19:00:00 16.9 21 Noroeste 40 Noroeste 0 -- -- 81
2019-10-08 18:00:00 18.7 17 Norte 30 Noroeste 0 -- -- 77
2019-10-08 17:00:00 21.3 3 Nordeste 27 Sur 0 -- -- 63
2019-10-08 16:00:00 24.2 14 Sudoeste 28 Sur 0 -- -- 52
2019-10-08 15:00:00 24.3 13 Sudoeste 24 Sudoeste 0 -- -- 49
2019-10-08 14:00:00 22.5 14 Sudoeste 28 Sudoeste 0 -- -- 52
2019-10-08 13:00:00 20 9 Sur 23 Sudoeste 0 -- -- 59
2019-10-08 12:00:00 15.3 3 Sudeste 6 Sur 0 -- -- 70
2019-10-08 11:00:00 12.9 3 Sudeste 6 Este 0 -- -- 74
2019-10-08 10:00:00 7.2 3 Sudeste 8 Norte 0 -- -- 98
2019-10-08 09:00:00 5.4 0 Calma 5 Norte 0 -- -- 99
2019-10-08 08:00:00 5.4 0 Calma 7 Norte 0 -- -- 99
2019-10-08 07:00:00 5.6 0 Calma 6 Norte 0 -- -- 98
2019-10-08 06:00:00 6.1 3 Norte 6 Norte 0 -- -- 97
2019-10-08 05:00:00 6.4 0 Calma 5 Nordeste 0 -- -- 97
2019-10-08 04:00:00 6.9 3 Norte 5 Norte 0 -- -- 96
2019-10-08 03:00:00 6.9 3 Norte 5 Norte 0 -- -- 95
2019-10-08 02:00:00 7.5 5 Norte 6 Norte 0 -- -- 93
2019-10-08 01:00:00 8.2 2 Norte 5 Nordeste 0 -- -- 92
2019-10-08 00:00:00 9 0 Calma 6 Norte 0 -- -- 89
2019-10-07 23:00:00 10 2 Nordeste 6 Nordeste 0 -- -- 87
2019-10-07 22:00:00 11.8 0 Calma 6 Noroeste 0 -- -- 79
2019-10-07 21:00:00 13.6 2 Norte 4 Noroeste 0 -- -- 73
2019-10-07 20:00:00 16 2 Sudoeste 19 Noroeste 0 -- -- 65
2019-10-07 19:00:00 19.6 9 Noroeste 19 Noroeste 0 -- -- 50
2019-10-07 18:00:00 23.4 14 Noroeste 25 Noroeste 0 -- -- 39
2019-10-07 17:00:00 25.9 13 Noroeste 28 Noroeste 0 -- -- 33
2019-10-07 16:00:00 27.5 7 Noroeste 15 Norte 0 -- -- 31
2019-10-07 15:00:00 25.8 9 Sur 15 Sur 0 -- -- 36
2019-10-07 14:00:00 23.1 10 Sur 15 Sur 0 -- -- 28
2019-10-07 13:00:00 17.8 5 Sur 9 Sur 0 -- -- 38
2019-10-07 12:00:00 14.8 3 Sudeste 6 Sudeste 0 -- -- 39
2019-10-07 11:00:00 11 3 Sudeste 6 Este 0 -- -- 58
2019-10-07 10:00:00 4.1 0 Calma 5 Norte 0 -- -- 89
2019-10-07 09:00:00 2.8 3 Norte 6 Norte 0 -- -- 92
2019-10-07 08:00:00 2.9 4 Norte 6 Norte 0 -- -- 92
2019-10-07 07:00:00 3.6 2 Nordeste 7 Norte 0 -- -- 93
2019-10-07 06:00:00 4.1 3 Norte 6 Norte 0 -- -- 92
2019-10-07 05:00:00 5.5 3 Norte 6 Norte 0 -- -- 93
2019-10-07 04:00:00 5.8 3 Nordeste 8 Norte 0 -- -- 91
2019-10-07 03:00:00 6.7 6 Norte 8 Nordeste 0 -- -- 90
2019-10-07 02:00:00 7.6 3 Nordeste 6 Noroeste 0 -- -- 92
2019-10-07 01:00:00 8.4 2 Nordeste 7 Norte 0 -- -- 92
2019-10-07 00:00:00 9.2 0 Calma 5 Norte 0 -- -- 91
2019-10-06 23:00:00 10.1 0 Calma 7 Noroeste 0 -- -- 92
2019-10-06 22:00:00 11 0 Calma 4 Norte 0 -- -- 89
2019-10-06 21:00:00 12.5 2 Sur 5 Sur 0 -- -- 79
2019-10-06 20:00:00 15.2 2 Sur 17 Noroeste 0 -- -- 63
2019-10-06 19:00:00 17.8 11 Noroeste 25 Noroeste 0 -- -- 53
2019-10-06 18:00:00 20.7 17 Noroeste 29 Noroeste 0 -- -- 43
2019-10-06 17:00:00 21.8 12 Noroeste 25 Noroeste 0 -- -- 45
2019-10-06 16:00:00 21.3 15 Noroeste 27 Norte 0 -- -- 49
2019-10-06 15:00:00 20.6 16 Noroeste 27 Noroeste 0 -- -- 49
2019-10-06 14:00:00 22 5 Sur 14 Sur 0 -- -- 47
2019-10-06 13:00:00 19.9 4 Sudeste 7 Sur 0 -- -- 54
2019-10-06 12:00:00 16 3 Sur 6 Sur 0 -- -- 72
2019-10-06 11:00:00 14.2 2 Sudeste 5 Nordeste 0 -- -- 71
2019-10-06 10:00:00 10 0 Calma 5 Norte 0 -- -- 88
2019-10-06 09:00:00 8.5 0 Calma 5 Noroeste 0 -- -- 90
2019-10-06 08:00:00 8.4 0 Calma 6 Nordeste 0 -- -- 90
2019-10-06 07:00:00 7.7 3 Norte 7 Nordeste 0 -- -- 92
2019-10-06 06:00:00 6.7 4 Norte 6 Norte 0 -- -- 95
2019-10-06 05:00:00 7 4 Norte 8 Norte 0 -- -- 91
2019-10-06 04:00:00 7.1 3 Norte 7 Nordeste 0 -- -- 91
2019-10-06 03:00:00 7.4 4 Norte 8 Norte 0 -- -- 92
2019-10-06 02:00:00 7 4 Norte 8 Noroeste 0 -- -- 94
2019-10-06 01:00:00 8.3 3 Norte 7 Norte 0 -- -- 93
2019-10-06 00:00:00 10.1 0 Calma 6 Nordeste 0 -- -- 92
2019-10-05 23:00:00 11.5 0 Calma 15 Noroeste 0 -- -- 90
2019-10-05 22:00:00 12.4 4 Noroeste 13 Norte 0 -- -- 88
2019-10-05 21:00:00 14.2 6 Norte 15 Norte 0 -- -- 81
2019-10-05 20:00:00 16.4 3 Sur 29 Noroeste 0 -- -- 73
2019-10-05 19:00:00 18.2 17 Noroeste 31 Noroeste 0 -- -- 64
2019-10-05 18:00:00 19.7 18 Noroeste 31 Noroeste 0 -- -- 60
2019-10-05 17:00:00 25.3 9 Sudoeste 28 Sur 0 -- -- 41
2019-10-05 16:00:00 23.7 22 Sur 30 Sur 0 -- -- 32
2019-10-05 15:00:00 23.1 16 Sur 30 Sudoeste 0 -- -- 40
2019-10-05 14:00:00 21.9 4 Sudeste 11 Sudeste 0 -- -- 51
2019-10-05 13:00:00 18 4 Sur 6 Sur 0 -- -- 58
2019-10-05 12:00:00 14.3 4 Sur 8 Sur 0 -- -- 68
2019-10-05 11:00:00 11.2 3 Sudeste 6 Sudeste 0 -- -- 75
2019-10-05 10:00:00 6.4 0 Calma 6 Nordeste 0 -- -- 96
2019-10-05 09:00:00 5.8 2 Nordeste 6 Nordeste 0 -- -- 95
2019-10-05 08:00:00 6 3 Nordeste 6 Nordeste 0 -- -- 95
2019-10-05 07:00:00 6.5 4 Norte 7 Norte 0 -- -- 95
2019-10-05 06:00:00 7.3 3 Nordeste 8 Nordeste 0 -- -- 95
2019-10-05 05:00:00 8.4 3 Nordeste 9 Norte 0 -- -- 96
2019-10-05 04:00:00 8.4 5 Norte 9 Nordeste 0 -- -- 96
2019-10-05 03:00:00 8.1 4 Norte 6 Norte 0 -- -- 98
2019-10-05 02:00:00 7.2 2 Nordeste 9 Norte 0 -- -- 98
2019-10-05 01:00:00 8.1 2 Nordeste 6 Norte 0 -- -- 98
2019-10-05 00:00:00 8.7 3 Norte 7 Norte 0 -- -- 96
2019-10-04 23:00:00 10 3 Nordeste 9 Norte 0 -- -- 96
2019-10-04 22:00:00 11.5 4 Norte 8 Norte 0 -- -- 93
2019-10-04 21:00:00 12.5 4 Noroeste 9 Noroeste 0 -- -- 91
2019-10-04 20:00:00 14.8 5 Norte 24 Noroeste 0 -- -- 81
2019-10-04 19:00:00 16.7 14 Norte 30 Noroeste 0 -- -- 73
2019-10-04 18:00:00 18.7 17 Norte 32 Noroeste 0 -- -- 67
2019-10-04 17:00:00 20.7 18 Norte 33 Noroeste 0 -- -- 62
2019-10-04 16:00:00 22.7 11 Noroeste 24 Noroeste 0 -- -- 54
2019-10-04 15:00:00 22.9 14 Sudoeste 25 Sudoeste 0 -- -- 48
2019-10-04 14:00:00 22.1 3 Sudoeste 15 Noroeste 0 -- -- 53
2019-10-04 13:00:00 20.9 3 Sudeste 8 Sudeste 0 -- -- 60
2019-10-04 12:00:00 18.7 3 Sudeste 6 Este 0 -- -- 74
2019-10-04 11:00:00 14.7 3 Sur 7 Nordeste 0 -- -- 91
2019-10-04 10:00:00 14.1 3 Nordeste 6 Norte 0 -- -- 95
2019-10-04 09:00:00 13 0 Calma 5 Norte 0 -- -- 97
2019-10-04 08:00:00 13 0 Calma 5 Norte 0 -- -- 97
2019-10-04 07:00:00 13.1 4 Nordeste 8 Norte 0 -- -- 98
2019-10-04 06:00:00 13.5 0 Calma 8 Norte 0 -- -- 98
2019-10-04 05:00:00 13.9 2 Nordeste 10 Norte 0 -- -- 98
2019-10-04 04:00:00 13.9 3 Sur 6 Sur 0.2 -- -- 99
2019-10-04 03:00:00 13.9 0 Calma 5 Norte 0 -- -- 98
2019-10-04 02:00:00 13.9 2 Norte 5 Norte 0 -- -- 97
2019-10-04 01:00:00 14.3 4 Noroeste 5 Noroeste 0 -- -- 95
2019-10-04 00:00:00 15 2 Nordeste 7 Noroeste 0 -- -- 92
2019-10-03 23:00:00 15.5 5 Nordeste 8 Norte 0 -- -- 88
2019-10-03 22:00:00 15.5 2 Noroeste 8 Nordeste 0 -- -- 84
2019-10-03 21:00:00 15.3 2 Noroeste 12 Noroeste 0 -- -- 81
2019-10-03 20:00:00 16.3 7 Norte 23 Noroeste 0 -- -- 73
2019-10-03 19:00:00 18.1 13 Noroeste 25 Oeste 0 -- -- 65
2019-10-03 18:00:00 21.4 13 Noroeste 21 Noroeste 0 -- -- 49
2019-10-03 17:00:00 24.2 9 Noroeste 22 Noroeste 0 -- -- 36
2019-10-03 16:00:00 24.8 8 Sudoeste 19 Sudoeste 0 -- -- 36
2019-10-03 15:00:00 24.7 6 Sur 14 Sur 0 -- -- 32
2019-10-03 14:00:00 22.6 9 Sur 14 Sur 0 -- -- 40
2019-10-03 13:00:00 18.1 4 Sur 8 Sur 0 -- -- 55
2019-10-03 12:00:00 13.3 3 Sur 8 Sur 0 -- -- 71
2019-10-03 11:00:00 10.8 3 Sudeste 6 Este 0 -- -- 75
2019-10-03 10:00:00 4.7 2 Nordeste 9 Nordeste 0 -- -- 100
2019-10-03 09:00:00 2.8 4 Norte 5 Norte 0 -- -- 99
2019-10-03 08:00:00 3.1 2 Norte 5 Nordeste 0 -- -- 99
2019-10-03 07:00:00 3.4 3 Norte 6 Norte 0 -- -- 99
2019-10-03 06:00:00 3.9 4 Norte 7 Nordeste 0 -- -- 98
2019-10-03 05:00:00 4.2 3 Norte 6 Norte 0 -- -- 98
2019-10-03 04:00:00 5.1 4 Norte 6 Norte 0 -- -- 98
2019-10-03 03:00:00 5.3 2 Norte 6 Norte 0 -- -- 97
2019-10-03 02:00:00 5.8 3 Norte 5 Norte 0 -- -- 97
2019-10-03 01:00:00 6.3 4 Norte 5 Norte 0 -- -- 96
2019-10-03 00:00:00 7.2 4 Norte 6 Noroeste 0 -- -- 96
2019-10-02 23:00:00 7.8 3 Norte 9 Norte 0 -- -- 93
2019-10-02 22:00:00 9.8 3 Norte 11 Nordeste 0 -- -- 86
2019-10-02 21:00:00 10.5 0 Calma 6 Noroeste 0 -- -- 85
2019-10-02 20:00:00 13.8 2 Noroeste 18 Noroeste 0 -- -- 71
2019-10-02 19:00:00 15.7 11 Noroeste 19 Noroeste 0 -- -- 63
2019-10-02 18:00:00 19.5 12 Noroeste 19 Oeste 0 -- -- 51
2019-10-02 17:00:00 19.4 12 Noroeste 20 Norte 0 -- -- 52
2019-10-02 16:00:00 19.4 8 Noroeste 21 Noroeste 0 -- -- 49
2019-10-02 15:00:00 18 10 Noroeste 22 Noroeste 0 -- -- 53
2019-10-02 14:00:00 17 8 Noroeste 23 Noroeste 0 -- -- 54
2019-10-02 13:00:00 15.4 13 Noroeste 27 Noroeste 0 -- -- 58
2019-10-02 12:00:00 13.3 12 Norte 24 Noroeste 0 -- -- 63
2019-10-02 11:00:00 12.2 10 Norte 18 Norte 0 -- -- 72
2019-10-02 10:00:00 11.4 5 Norte 13 Nordeste 0 -- -- 77
2019-10-02 09:00:00 10.5 5 Norte 14 Noroeste 0 -- -- 79
2019-10-02 08:00:00 10.5 4 Norte 19 Norte 0 -- -- 75
2019-10-02 07:00:00 10.9 9 Norte 17 Norte 0 -- -- 71
2019-10-02 06:00:00 10.4 3 Oeste 14 Noroeste 0 -- -- 74
2019-10-02 05:00:00 10.1 4 Norte 8 Sur 0 -- -- 73
2019-10-02 04:00:00 10.5 4 Nordeste 10 Norte 0 -- -- 71
2019-10-02 03:00:00 10.7 3 Noroeste 14 Sudoeste 0 -- -- 71
2019-10-02 02:00:00 10.7 4 Norte 14 Oeste 0 -- -- 76
2019-10-02 01:00:00 11.1 3 Oeste 15 Oeste 0 -- -- 75
2019-10-02 00:00:00 11.1 3 Noroeste 12 Noroeste 0 -- -- 79
2019-10-01 23:00:00 11.5 6 Norte 21 Norte 0 -- -- 76
2019-10-01 22:00:00 13.5 6 Nordeste 23 Noroeste 0 -- -- 64
2019-10-01 21:00:00 14.4 6 Norte 22 Norte 0 -- -- 61
2019-10-01 20:00:00 15 7 Noroeste 29 Noroeste 0 -- -- 59
2019-10-01 19:00:00 15.8 11 Noroeste 26 Noroeste 0 -- -- 59
2019-10-01 18:00:00 17.7 15 Norte 32 Noroeste 0 -- -- 54
2019-10-01 17:00:00 20 12 Noroeste 33 Norte 0 -- -- 43
2019-10-01 16:00:00 20.3 16 Noroeste 27 Noroeste 0 -- -- 46
2019-10-01 15:00:00 21.6 8 Sur 27 Norte 0 -- -- 46
2019-10-01 14:00:00 19 10 Noroeste 31 Norte 0 -- -- 53
2019-10-01 13:00:00 18 7 Noroeste 23 Sur 0 -- -- 57
2019-10-01 12:00:00 16.8 6 Noroeste 23 Noroeste 0 -- -- 67
2019-10-01 11:00:00 14.2 5 Norte 18 Sur 0 -- -- 87
2019-10-01 10:00:00 12.2 8 Oeste 17 Sudoeste 0 -- -- 99
2019-10-01 09:00:00 9.5 2 Norte 8 Nordeste 0 -- -- 99
2019-10-01 08:00:00 8.7 2 Este 7 Norte 0 -- -- 99
2019-10-01 07:00:00 7.7 3 Norte 6 Norte 0 -- -- 99
2019-10-01 06:00:00 8.1 2 Nordeste 6 Noroeste 0 -- -- 99
2019-10-01 05:00:00 8.9 4 Noroeste 9 Norte 0 -- -- 97
2019-10-01 04:00:00 9.8 4 Norte 8 Norte 0 -- -- 97
2019-10-01 03:00:00 10.3 2 Norte 8 Norte 0 -- -- 95
2019-10-01 02:00:00 10.7 2 Este 6 Norte 0 -- -- 96
2019-10-01 01:00:00 11 0 Calma 9 Norte 0 -- -- 93
2019-10-01 00:00:00 12.3 2 Norte 6 Nordeste 0 -- -- 89
2019-09-30 23:00:00 13.9 3 Norte 7 Nordeste 0 -- -- 81
2019-09-30 22:00:00 13.1 0 Calma 4 Este 0 -- -- 89
2019-09-30 21:00:00 14.2 0 Calma 6 Oeste 0 -- -- 84
2019-09-30 20:00:00 16.3 4 Norte 9 Norte 0 -- -- 73
2019-09-30 19:00:00 18.5 3 Noroeste 24 Sur 0 -- -- 66
2019-09-30 18:00:00 24.9 14 Sur 32 Sur 0 -- -- 44
2019-09-30 17:00:00 25.5 14 Sur 35 Sur 0 -- -- 41
2019-09-30 16:00:00 24.6 17 Sur 43 Sur 0 -- -- 46
2019-09-30 15:00:00 23.6 19 Sur 32 Sur 0 -- -- 56
2019-09-30 14:00:00 22.8 15 Sur 33 Sudoeste 0 -- -- 59
2019-09-30 13:00:00 19.3 4 Sudeste 8 Sur 0 -- -- 72
2019-09-30 12:00:00 17 3 Sur 8 Sur 0 -- -- 73
2019-09-30 11:00:00 14.5 3 Sudeste 8 Sur 0 -- -- 80
2019-09-30 10:00:00 10.2 2 Sudeste 6 Nordeste 0 -- -- 98
2019-09-30 09:00:00 7.9 3 Norte 6 Nordeste 0 -- -- 99
2019-09-30 08:00:00 7.9 0 Calma 5 Nordeste 0 -- -- 99
2019-09-30 07:00:00 7.8 2 Nordeste 4 Noroeste 0 -- -- 98
2019-09-30 06:00:00 8.7 0 Calma 5 Nordeste 0 -- -- 98
2019-09-30 05:00:00 9.3 4 Norte 7 Norte 0 -- -- 98
2019-09-30 04:00:00 9.6 3 Norte 7 Nordeste 0 -- -- 98
2019-09-30 03:00:00 9.7 3 Norte 8 Nordeste 0 -- -- 99
2019-09-30 02:00:00 10.1 2 Este 6 Norte 0 -- -- 98
2019-09-30 01:00:00 11.5 0 Calma 7 Noroeste 0 -- -- 98
2019-09-30 00:00:00 12 3 Norte 10 Norte 0 -- -- 95
2019-09-29 23:00:00 12.8 2 Sudeste 7 Norte 0 -- -- 94
2019-09-29 22:00:00 13.4 2 Noroeste 22 Noroeste 0 -- -- 93
2019-09-29 21:00:00 14.6 4 Noroeste 14 Norte 0 -- -- 95
2019-09-29 20:00:00 16.8 5 Noroeste 17 Sudeste 0 -- -- 87
2019-09-29 19:00:00 16.9 4 Oeste 26 Sur 0 -- -- 89
2019-09-29 18:00:00 18.8 9 Sur 33 Sur 0 -- -- 75
2019-09-29 17:00:00 18.8 9 Sur 47 Sur 0 -- -- 73
2019-09-29 16:00:00 20 17 Sur 41 Sur 0 -- -- 66
2019-09-29 15:00:00 20.7 22 Sur 38 Sur 0 -- -- 61
2019-09-29 14:00:00 19.5 20 Sur 33 Sur 0 -- -- 63
2019-09-29 13:00:00 20.3 14 Sudoeste 41 Sur 0 -- -- 55
2019-09-29 12:00:00 19.1 14 Sudoeste 28 Sur 0 -- -- 50
2019-09-29 11:00:00 11.8 3 Sudeste 6 Sudoeste 0 -- -- 69
2019-09-29 10:00:00 7.7 0 Calma 7 Norte 0 -- -- 93
2019-09-29 09:00:00 3.1 4 Norte 6 Norte 0 -- -- 98
2019-09-29 08:00:00 2.6 4 Norte 6 Norte 0 -- -- 98
2019-09-29 07:00:00 3 3 Nordeste 6 Norte 0 -- -- 98
2019-09-29 06:00:00 3 3 Norte 6 Noroeste 0 -- -- 97
2019-09-29 05:00:00 3.3 4 Norte 6 Noroeste 0 -- -- 96
2019-09-29 04:00:00 3.9 4 Norte 6 Nordeste 0 -- -- 96
2019-09-29 03:00:00 4.3 4 Noroeste 6 Norte 0 -- -- 95
2019-09-29 02:00:00 5.2 3 Norte 6 Noroeste 0 -- -- 91
2019-09-29 01:00:00 5.5 0 Calma 7 Norte 0 -- -- 93
2019-09-29 00:00:00 6.7 3 Nordeste 5 Norte 0 -- -- 89
2019-09-28 23:00:00 7.7 4 Nordeste 6 Norte 0 -- -- 89
2019-09-28 22:00:00 9.3 0 Calma 7 Norte 0 -- -- 84
2019-09-28 21:00:00 11.2 3 Noroeste 10 Norte 0 -- -- 71
2019-09-28 20:00:00 13.3 3 Nordeste 12 Oeste 0 -- -- 66
2019-09-28 19:00:00 15.4 3 Noroeste 13 Noroeste 0 -- -- 48
2019-09-28 18:00:00 23.3 4 Noroeste 22 Sudoeste 0 -- -- 25
2019-09-28 17:00:00 24.7 13 Sudoeste 34 Sudoeste 0 -- -- 25
2019-09-28 16:00:00 24.3 12 Sur 29 Sudoeste 0 -- -- 25
2019-09-28 15:00:00 23.2 14 Sur 26 Sur -- -- -- 21
2019-09-28 14:00:00 20.6 4 Sudoeste 8 Sudoeste 0 -- -- 45
2019-09-28 13:00:00 16.7 3 Sudeste 7 Sur 0 -- -- 54
2019-09-28 12:00:00 12.6 3 Sudeste 8 Sudoeste 0 -- -- 63
2019-09-28 11:00:00 11.2 4 Sudeste 8 Sudeste 0 -- -- 71
2019-09-28 10:00:00 6.9 3 Norte 7 Este 0 -- -- 89
2019-09-28 09:00:00 5.1 4 Nordeste 8 Nordeste 0 -- -- 93
2019-09-28 08:00:00 5.5 3 Nordeste 9 Nordeste 0 -- -- 92
2019-09-28 07:00:00 6.3 4 Nordeste 8 Norte 0 -- -- 95
2019-09-28 06:00:00 5.5 5 Norte 8 Norte 0 -- -- 98
2019-09-28 05:00:00 4.6 4 Norte 5 Norte 0 -- -- 98
2019-09-28 04:00:00 4.3 4 Norte 6 Norte 0 -- -- 99
2019-09-28 03:00:00 5.2 0 Calma 9 Norte 0 -- -- 99
2019-09-28 02:00:00 5.9 0 Calma 6 Norte 0 -- -- 98
2019-09-28 01:00:00 6.8 3 Norte 5 Norte 0 -- -- 97
2019-09-28 00:00:00 7.8 4 Norte 6 Nordeste 0 -- -- 96
2019-09-27 23:00:00 8.8 3 Norte 7 Norte 0 -- -- 96
2019-09-27 22:00:00 10 0 Calma 8 Norte 0 -- -- 93
2019-09-27 21:00:00 11.9 3 Oeste 13 Oeste 0 -- -- 86
2019-09-27 20:00:00 15.2 8 Oeste 16 Oeste 0 -- -- 67
2019-09-27 19:00:00 16.7 8 Sudoeste 33 Sur 0 -- -- 66
2019-09-27 18:00:00 19.2 14 Sur 40 Sur 0 -- -- 58
2019-09-27 17:00:00 17.7 27 Sur 45 Sur 0 -- -- 68
2019-09-27 16:00:00 18 17 Sudoeste 44 Sur 0 -- -- 73
2019-09-27 15:00:00 16.5 20 Sur 39 Sur 0 -- -- 78
2019-09-27 14:00:00 16.4 15 Oeste 28 Oeste 0 -- -- 78
2019-09-27 13:00:00 15.3 14 Sudoeste 24 Sudoeste 0 -- -- 82
2019-09-27 12:00:00 11.4 0 Calma 5 Norte 0 -- -- 86
2019-09-27 11:00:00 9.5 2 Norte 6 Nordeste 0 -- -- 88
2019-09-27 10:00:00 8.7 0 Calma 6 Norte 0 -- -- 86
2019-09-27 09:00:00 7.5 3 Norte 6 Norte 0 -- -- 89
2019-09-27 08:00:00 7.2 0 Calma 4 Norte 0 -- -- 89
2019-09-27 07:00:00 6.7 2 Norte 4 Noroeste 0 -- -- 91
2019-09-27 06:00:00 5.8 2 Norte 6 Norte 0 -- -- 95
2019-09-27 05:00:00 4.6 4 Norte 8 Norte 0 -- -- 96
2019-09-27 04:00:00 4.4 4 Norte 6 Norte 0 -- -- 95
2019-09-27 03:00:00 4.9 4 Nordeste 8 Norte 0 -- -- 92
2019-09-27 02:00:00 5.2 3 Norte 6 Norte 0 -- -- 93
2019-09-27 01:00:00 6.3 0 Calma 8 Norte 0 -- -- 92
2019-09-27 00:00:00 7.3 2 Nordeste 7 Noroeste 0 -- -- 86
2019-09-26 23:00:00 8.5 4 Norte 6 Norte 0 -- -- 84
2019-09-26 22:00:00 9.7 0 Calma 5 Norte 0 -- -- 82
2019-09-26 21:00:00 12.1 0 Calma 4 Noroeste 0 -- -- 77
2019-09-26 20:00:00 15 2 Este 14 Noroeste 0 -- -- 71
2019-09-26 19:00:00 17.1 4 Noroeste 8 Noroeste 0 -- -- 61
2019-09-26 18:00:00 23.3 4 Norte 18 Sur 0 -- -- 37
2019-09-26 17:00:00 24 12 Sudoeste 27 Sudoeste 0 -- -- 37
2019-09-26 16:00:00 23.5 17 Sudoeste 26 Sudoeste 0 -- -- 40
2019-09-26 15:00:00 22.9 12 Oeste 27 Sudoeste 0 -- -- 40
2019-09-26 14:00:00 20.7 5 Noroeste 13 Noroeste 0 -- -- 43
2019-09-26 13:00:00 16.7 2 Sudeste 6 Sur 0 -- -- 62
2019-09-26 12:00:00 13.1 3 Sur 8 Nordeste 0 -- -- 71
2019-09-26 11:00:00 8.9 4 Norte 8 Norte 0 -- -- 89
2019-09-26 10:00:00 7.8 4 Nordeste 7 Norte 0 -- -- 94
2019-09-26 09:00:00 7.5 4 Nordeste 9 Nordeste 0 -- -- 95
2019-09-26 08:00:00 7.8 4 Norte 8 Norte 0 -- -- 95
2019-09-26 07:00:00 8 3 Norte 6 Norte 0 -- -- 96
2019-09-26 06:00:00 8.1 4 Nordeste 8 Nordeste 0 -- -- 96
2019-09-26 05:00:00 8.1 3 Norte 8 Norte 0 -- -- 96
2019-09-26 04:00:00 7.8 5 Norte 7 Norte 0 -- -- 97
2019-09-26 03:00:00 8 2 Nordeste 6 Nordeste 0 -- -- 98
2019-09-26 02:00:00 7.5 4 Norte 5 Norte 0 -- -- 98
2019-09-26 01:00:00 8.3 3 Norte 6 Noroeste 0 -- -- 97
2019-09-26 00:00:00 8.8 2 Nordeste 5 Norte 0 -- -- 96
2019-09-25 23:00:00 9.8 3 Norte 6 Norte 0 -- -- 94
2019-09-25 22:00:00 11.1 2 Norte 12 Norte 0 -- -- 90
2019-09-25 21:00:00 13.1 4 Noroeste 13 Sudoeste 0 -- -- 81
2019-09-25 20:00:00 14.7 10 Sudoeste 21 Sudoeste 0 -- -- 74
2019-09-25 19:00:00 15.7 11 Sudoeste 34 Sur 0 -- -- 70
2019-09-25 18:00:00 17.8 14 Sur 27 Sur 0 -- -- 62
2019-09-25 17:00:00 18.8 14 Sudoeste 30 Sudoeste 0 -- -- 59
2019-09-25 16:00:00 17.8 15 Sudoeste 32 Oeste 0 -- -- 62
2019-09-25 15:00:00 17.6 17 Sudoeste 29 Sur 0 -- -- 62
2019-09-25 14:00:00 17.1 14 Sudoeste 26 Sudoeste 0 -- -- 63
2019-09-25 13:00:00 16.8 15 Sudoeste 26 Sudoeste 0 -- -- 61
2019-09-25 12:00:00 16.1 5 Noroeste 21 Noroeste 1.4 -- -- 63
2019-09-25 11:00:00 14.1 7 Sudoeste 18 Sudoeste 0 -- -- 70
2019-09-25 10:00:00 11.7 5 Norte 9 Noroeste 0 -- -- 78
2019-09-25 09:00:00 11 5 Sudoeste 12 Sudoeste 0.4 -- -- 79
2019-09-25 08:00:00 10.7 7 Oeste 15 Oeste 0 -- -- 78
2019-09-25 07:00:00 10.4 4 Este 18 Sudoeste 0 -- -- 85
2019-09-25 06:00:00 10.6 5 Oeste 31 Sudoeste 0 -- -- 82
2019-09-25 05:00:00 10.6 17 Sur 26 Sur 0 -- -- 82
2019-09-25 04:00:00 10.9 12 Sudoeste 23 Sur -- -- -- 78
2019-09-25 03:00:00 11.5 8 Norte 18 Noroeste 0 -- -- 73
2019-09-25 02:00:00 11.7 11 Sudoeste 21 Sudoeste 0 -- -- 68
2019-09-25 01:00:00 12.1 5 Oeste 16 Norte 0 -- -- 68
2019-09-25 00:00:00 11.8 4 Noroeste 20 Norte 0 -- -- 68
2019-09-24 23:00:00 11.7 5 Norte 19 Noroeste 0 -- -- 70
2019-09-24 22:00:00 12.8 9 Noroeste 20 Noroeste 0 -- -- 65
2019-09-24 21:00:00 14.2 10 Sudoeste 36 Sur 0 -- -- 67
2019-09-24 20:00:00 15 8 Noroeste 36 Sur 0 -- -- 69
2019-09-24 19:00:00 16.4 15 Sudoeste 56 Sudoeste 0 -- -- 62
2019-09-24 18:00:00 18.6 20 Sur 51 Sur 0 -- -- 58
2019-09-24 17:00:00 18 29 Sur 43 Sur 0 -- -- 58
2019-09-24 16:00:00 18.4 32 Sur 72 Sur 0 -- -- 58
2019-09-24 15:00:00 19 30 Sur 47 Sur 0 -- -- 64
2019-09-24 14:00:00 18 23 Sudoeste 48 Sur 0 -- -- 69
2019-09-24 13:00:00 17.9 23 Sur 44 Sur 0.2 -- -- 76
2019-09-24 12:00:00 15.7 15 Sur 34 Sudoeste 0.2 -- -- 88
2019-09-24 11:00:00 17.9 12 Sudoeste 37 Sudoeste 0 -- -- 77
2019-09-24 10:00:00 14.8 17 Sur 36 Sur 0 -- -- 90
2019-09-24 09:00:00 13.8 17 Sur 36 Sur 0.2 -- -- 93
2019-09-24 08:00:00 13.2 11 Sur 23 Sur 0.2 -- -- 95
2019-09-24 07:00:00 13 10 Sudoeste 26 Sudoeste 0.6 -- -- 94
2019-09-24 06:00:00 13 8 Sudoeste 19 Sur 1.2 -- -- 94
2019-09-24 05:00:00 14 8 Sudoeste 31 Sur 0.6 -- -- 89
2019-09-24 04:00:00 15.1 5 Sur 20 Sudoeste 0 -- -- 80
2019-09-24 03:00:00 15.1 10 Sudoeste 40 Sur 0 -- -- 79
2019-09-24 02:00:00 15.2 21 Sudoeste 48 Sur 0 -- -- 77
2019-09-24 01:00:00 14 10 Oeste 23 Sudoeste 0 -- -- 84
2019-09-24 00:00:00 12.8 4 Norte 13 Norte 0 -- -- 91
2019-09-23 23:00:00 12.4 3 Noroeste 9 Norte 0 -- -- 94
2019-09-23 22:00:00 12.3 0 Calma 6 Nordeste 0 -- -- 94
2019-09-23 21:00:00 12.3 3 Noroeste 10 Este 0 -- -- 92
2019-09-23 20:00:00 12.4 3 Sudeste 18 Sudoeste 0.2 -- -- 90
2019-09-23 19:00:00 13.9 12 Sur 23 Sur 0.2 -- -- 81
2019-09-23 18:00:00 13.6 11 Sudoeste 21 Sur 0 -- -- 83
2019-09-23 17:00:00 15.1 7 Oeste 31 Sur 0 -- -- 72
2019-09-23 16:00:00 15.7 18 Sudoeste 33 Sur 0 -- -- 63
2019-09-23 15:00:00 15.7 13 Sudoeste 30 Sudoeste 0 -- -- 61
2019-09-23 14:00:00 16.3 13 Sudoeste 33 Sur 0 -- -- 57
2019-09-23 13:00:00 15.2 5 Oeste 20 Sur 0 -- -- 66
2019-09-23 12:00:00 12.9 4 Norte 7 Norte 0 -- -- 80
2019-09-23 11:00:00 10.7 2 Norte 5 Norte 0 -- -- 87
2019-09-23 10:00:00 9.5 2 Noroeste 6 Norte 0 -- -- 93
2019-09-23 09:00:00 7.8 0 Calma 8 Norte 0 -- -- 96
2019-09-23 08:00:00 7.5 0 Calma 9 Noroeste 0 -- -- 97
2019-09-23 07:00:00 7 4 Norte 5 Noroeste 0 -- -- 97
2019-09-23 06:00:00 6.6 4 Nordeste 8 Norte 0 -- -- 98
2019-09-23 05:00:00 6.5 3 Norte 7 Norte 0 -- -- 97
2019-09-23 04:00:00 6.8 3 Norte 8 Norte 0 -- -- 97
2019-09-23 03:00:00 6.7 2 Nordeste 6 Nordeste 0 -- -- 97
2019-09-23 02:00:00 6.6 4 Norte 9 Norte 0 -- -- 97
2019-09-23 01:00:00 6.9 3 Nordeste 8 Norte 0 -- -- 98
2019-09-23 00:00:00 7.4 2 Nordeste 7 Norte 0 -- -- 97
2019-09-22 23:00:00 8.4 3 Nordeste 8 Norte 0 -- -- 97
2019-09-22 22:00:00 9.2 4 Norte 6 Norte 0 -- -- 95
2019-09-22 21:00:00 10.3 2 Norte 5 Nordeste 0 -- -- 92
2019-09-22 20:00:00 11.4 0 Calma 9 Norte 0 -- -- 88
2019-09-22 19:00:00 13 3 Noroeste 10 Norte 0 -- -- 81
2019-09-22 18:00:00 13.7 8 Norte 42 Sur 0 -- -- 80
2019-09-22 17:00:00 16.2 15 Sur 39 Sur 0 -- -- 57
2019-09-22 16:00:00 15.9 20 Sur 42 Sur 0 -- -- 55
2019-09-22 15:00:00 15.8 13 Sur 43 Sur 0 -- -- 56
2019-09-22 14:00:00 14.4 12 Sudoeste 39 Sur 0 -- -- 66
2019-09-22 13:00:00 13.9 23 Sur 39 Sudoeste 0 -- -- 66
2019-09-22 12:00:00 13.3 17 Sur 30 Sudoeste 0 -- -- 66
2019-09-22 11:00:00 13.2 17 Sudoeste 34 Sur 0 -- -- 67
2019-09-22 10:00:00 11.6 10 Sur 27 Sur 0 -- -- 72
2019-09-22 09:00:00 10.1 13 Sudoeste 27 Sur 0 -- -- 75
2019-09-22 08:00:00 10.9 13 Sudoeste 41 Sur 0 -- -- 78
2019-09-22 07:00:00 11.3 14 Sudoeste 40 Sur 0 -- -- 77
2019-09-22 06:00:00 11.7 26 Sudoeste 51 Sudoeste 0 -- -- 79
2019-09-22 05:00:00 11.6 26 Sur 48 Sudoeste 0 -- -- 78
2019-09-22 04:00:00 11.4 15 Sur 32 Sur 0 -- -- 82
2019-09-22 03:00:00 11.3 12 Sudoeste 40 Sur 0 -- -- 81
2019-09-22 02:00:00 11.3 14 Sudoeste 42 Sur 0 -- -- 81
2019-09-22 01:00:00 11.3 15 Sudoeste 51 Sur 0 -- -- 80
2019-09-22 00:00:00 11 14 Sudoeste 44 Sur 0.8 -- -- 80
2019-09-21 23:00:00 12 22 Sudoeste 67 Sur 5.4 -- -- 89
2019-09-21 22:00:00 15.4 6 Nordeste 23 Sur 0 -- -- 89
2019-09-21 21:00:00 15 14 Sur 33 Sur 1 -- -- 93
2019-09-21 20:00:00 15 3 Oeste 10 Sudeste 2.6 -- -- 96
2019-09-21 19:00:00 15.5 3 Este 8 Oeste 0.8 -- -- 93
2019-09-21 18:00:00 15.9 5 Sudoeste 14 Sur 0.6 -- -- 92
2019-09-21 17:00:00 16.7 6 Sur 17 Sudoeste 0 -- -- 86
2019-09-21 16:00:00 17.8 5 Sur 9 Sur 0 -- -- 76
2019-09-21 15:00:00 16.3 5 Sudeste 26 Sur 0 -- -- 86
2019-09-21 14:00:00 17.3 12 Sudoeste 41 Sudoeste 0 -- -- 72
2019-09-21 13:00:00 17.4 14 Sudeste 28 Sudoeste 0 -- -- 69
2019-09-21 12:00:00 16.5 3 Sur 9 Oeste 0.2 -- -- 84
2019-09-21 11:00:00 14 4 Noroeste 10 Norte 0.4 -- -- 88
2019-09-21 10:00:00 13.9 6 Noroeste 11 Noroeste 0.2 -- -- 86
2019-09-21 09:00:00 14.1 2 Sur 6 Sur 0 -- -- 85
2019-09-21 08:00:00 13.9 4 Sudeste 18 Sudoeste 0 -- -- 83
2019-09-21 07:00:00 14.1 8 Sudoeste 17 Sur 0 -- -- 82
2019-09-21 06:00:00 12.4 3 Norte 8 Nordeste 0 -- -- 98
2019-09-21 05:00:00 11.5 4 Norte 6 Sur 0 -- -- 98
2019-09-21 04:00:00 11.8 3 Norte 7 Este 0 -- -- 98
2019-09-21 03:00:00 11 3 Noroeste 8 Norte 0 -- -- 99
2019-09-21 02:00:00 10.5 4 Norte 7 Noroeste 0 -- -- 99
2019-09-21 01:00:00 10.9 2 Noroeste 5 Noroeste 0 -- -- 98
2019-09-21 00:00:00 11.8 4 Nordeste 7 Este 0 -- -- 96
2019-09-20 23:00:00 12.4 4 Norte 6 Norte 0 -- -- 95
2019-09-20 22:00:00 13.2 2 Nordeste 5 Norte 0 -- -- 96
2019-09-20 21:00:00 13.9 5 Norte 11 Norte 0 -- -- 92
2019-09-20 20:00:00 16.4 7 Norte 18 Sur 0 -- -- 81
2019-09-20 19:00:00 18.6 13 Sur 35 Sudoeste 0.2 -- -- 65
2019-09-20 18:00:00 20.5 6 Sudoeste 15 Sur 0 -- -- 66
2019-09-20 17:00:00 22.8 5 Sudoeste 29 Sudoeste 0 -- -- 59
2019-09-20 16:00:00 26.1 10 Sur 28 Sudoeste 0 -- -- 41
2019-09-20 15:00:00 26.5 11 Sur 31 Sudoeste 0 -- -- 41
2019-09-20 14:00:00 24.6 8 Este 30 Este 0 -- -- 51
2019-09-20 13:00:00 22.5 11 Nordeste 23 Nordeste 0 -- -- 56
2019-09-20 12:00:00 16.3 3 Sur 6 Sudoeste 0 -- -- 77
2019-09-20 11:00:00 14.2 0 Calma 6 Este 0 -- -- 84
2019-09-20 10:00:00 12.4 2 Nordeste 4 Nordeste 0 -- -- 97
2019-09-20 09:00:00 8 0 Calma 5 Norte 0 -- -- 100
2019-09-20 08:00:00 7.4 3 Norte 5 Nordeste 0 -- -- 100
2019-09-20 07:00:00 7.6 3 Norte 6 Nordeste 0 -- -- 100
2019-09-20 06:00:00 7.7 2 Norte 6 Noroeste 0 -- -- 100
2019-09-20 05:00:00 8.3 3 Norte 6 Norte 0 -- -- 100
2019-09-20 04:00:00 8.7 4 Norte 8 Norte 0 -- -- 99
2019-09-20 03:00:00 8.9 2 Norte 6 Nordeste 0 -- -- 99
2019-09-20 02:00:00 9.5 0 Calma 5 Norte 0 -- -- 99
2019-09-20 01:00:00 10.4 3 Norte 6 Norte 0 -- -- 98
2019-09-20 00:00:00 11.3 3 Nordeste 6 Norte 0 -- -- 98
2019-09-19 23:00:00 12.2 2 Noroeste 8 Norte 0 -- -- 96
2019-09-19 22:00:00 13 0 Calma 11 Norte 0 -- -- 94
2019-09-19 21:00:00 14.2 2 Norte 6 Norte 0 -- -- 91
2019-09-19 20:00:00 16.7 0 Calma 6 Sur 0 -- -- 86
2019-09-19 19:00:00 17.9 3 Sudeste 11 Sur 0 -- -- 81
2019-09-19 18:00:00 18.5 5 Sur 19 Sur 0 -- -- 77
2019-09-19 17:00:00 20.4 12 Sudoeste 28 Sudoeste 0 -- -- 59
2019-09-19 16:00:00 23.1 5 Noroeste 16 Norte 0 -- -- 54
2019-09-19 15:00:00 23.3 7 Nordeste 15 Sur 0 -- -- 50
2019-09-19 14:00:00 25.4 5 Sur 9 Sur 0 -- -- 57
2019-09-19 13:00:00 21.7 4 Sudeste 6 Sur 0 -- -- 66
2019-09-19 12:00:00 18.9 3 Sudeste 6 Sudoeste 0 -- -- 68
2019-09-19 11:00:00 16.4 3 Sudeste 5 Sudeste 0 -- -- 75
2019-09-19 10:00:00 12.6 2 Sudeste 4 Nordeste 0 -- -- 94
2019-09-19 09:00:00 8.5 2 Nordeste 7 Nordeste 0 -- -- 100
2019-09-19 08:00:00 8.8 -- -- -- -- 0 -- -- 99
2019-09-19 07:00:00 9.5 2 Norte 4 Nordeste 0 -- -- 99
2019-09-19 06:00:00 9.5 2 Nordeste 5 Norte 0 -- -- 100
2019-09-19 05:00:00 9.2 3 Norte 6 Norte 0 -- -- 99
2019-09-19 04:00:00 9.5 3 Norte 5 Norte 0 -- -- 99
2019-09-19 03:00:00 10.4 2 Nordeste 5 Norte 0 -- -- 99
2019-09-19 02:00:00 11.2 4 Norte 6 Norte 0 -- -- 98
2019-09-19 01:00:00 12 2 Nordeste 6 Nordeste 0 -- -- 98
2019-09-19 00:00:00 12.9 4 Norte 9 Norte 0 -- -- 96
2019-09-18 23:00:00 14.3 5 Norte 11 Nordeste 0 -- -- 93
2019-09-18 22:00:00 15 2 Norte 12 Noroeste 0 -- -- 94
2019-09-18 21:00:00 16.6 6 Norte 9 Nordeste 0 -- -- 89
2019-09-18 20:00:00 18.4 4 Norte 9 Noroeste 0 -- -- 74
2019-09-18 19:00:00 18.9 0 Calma 13 Nordeste 0 -- -- 74
2019-09-18 18:00:00 24.2 4 Noroeste 10 Oeste 0 -- -- 52
2019-09-18 17:00:00 24.1 2 Oeste 6 Sur 0 -- -- 51
2019-09-18 16:00:00 24.5 4 Sur 8 Sur 0 -- -- 49
2019-09-18 15:00:00 23.7 5 Sudoeste 8 Sudoeste 0 -- -- 56
2019-09-18 14:00:00 21.6 0 Calma 8 Sur 0 -- -- 62
2019-09-18 13:00:00 19.5 5 Sur 8 Sur 0 -- -- 70
2019-09-18 12:00:00 17.1 3 Sur 6 Sudoeste 0 -- -- 77
2019-09-18 11:00:00 13.1 3 Norte 5 Norte 0 -- -- 96
2019-09-18 10:00:00 11.6 3 Nordeste 8 Norte 0 -- -- 99
2019-09-18 09:00:00 10.7 0 Calma 6 Noroeste 0 -- -- 99
2019-09-18 08:00:00 10.5 0 Calma 9 Norte 0 -- -- 99
2019-09-18 07:00:00 10.8 4 Norte 7 Norte 0 -- -- 99
2019-09-18 06:00:00 11.2 3 Noroeste 6 Norte 0 -- -- 99
2019-09-18 05:00:00 12.1 3 Nordeste 10 Norte 0 -- -- 98
2019-09-18 04:00:00 11.9 3 Nordeste 11 Norte 0.2 -- -- 97
2019-09-18 03:00:00 12.3 7 Norte 17 Norte 0.8 -- -- 97
2019-09-18 02:00:00 11.2 3 Este 14 Norte 0 -- -- 99
2019-09-18 01:00:00 10.9 6 Norte 10 Norte 0 -- -- 98
2019-09-18 00:00:00 11.4 6 Norte 10 Norte 0 -- -- 98
2019-09-17 23:00:00 11.8 4 Norte 8 Norte 0 -- -- 98
2019-09-17 22:00:00 12.7 4 Norte 6 Norte 0 -- -- 97
2019-09-17 21:00:00 13.7 4 Nordeste 12 Norte 0 -- -- 94